Broager, Denmark
Current Conditions -  °F | °C
As of 11:20 AM on Monday 26 Jan 2015 (Local Time) from EKSB Reporting Station
Drizzle Drizzle  
Wind Chill: 29°   Ceiling: 400
Heat Index: 37°   Visibility: 1.2mi
Dew Point: 36°   Wind: 13mph
Humidity: 93%   Direction: 200°SSW
Pressure: 29.91"   Gusts: NA
Location:  54.89°N, 9.68°E
Report Text: EKSB 261020Z 20011KT 2000 DZ BR OVC004 03/02 Q1013
Loading
Personal Weather Stations






























Interactive Weather Map New forecast layout! Learn more

10-Day Weather Forecast

Advertisements
Track Severe Weather on mobile